Arriba, Colorado
Current Conditions -  °F | °C
As of 9:55 AM on Saturday 25 Oct 2014 (Local Time) from KLIC Reporting Station
Clear Clear  
Wind Chill: 19°   Ceiling: Unl
Heat Index: 19°   Visibility: 10mi
Dew Point: -2°   Wind: 8mph
Humidity: 24%   Direction: 310°NW
Pressure: 30.25"   Gusts: NA
Location:  39.29°N, 103.28°W
Report Text: KLIC 251555Z AUTO 31007KT 10SM CLR 19/M02 A3025 RMK AO2 SLP201 T01941017
Loading
Personal Weather Stations






























Interactive Weather Map
Tropical Storm Tracking
New forecast layout! Learn more

10-Day Weather Forecast

Advertisements
Track Severe Weather on mobile